Time;durP1;ratioP1;P1;durP2;ratioP2;P2;SDS_P1;SDS_P2;PMS_P1;PMS_P2;Temp;Humidity;BMP_temperature;BMP_pressure;BME280_temperature;BME280_humidity;BME280_pressure;Samples;Min_cycle;Max_cycle;Signal;HPM_P1;HPM_P2
2023/12/14 00:00:12;;;;;;;15.63;11.70;;;;;;;;;;4999710;28;20434;-63
2023/12/14 00:02:38;;;;;;;16.17;12.63;;;;;;;;;;5001416;28;20990;-63
2023/12/14 00:05:03;;;;;;;17.57;12.80;;;;;;;;;;5000196;28;20411;-63
2023/12/14 00:07:28;;;;;;;19.38;13.35;;;;;;;;;;4993214;28;20946;-63
2023/12/14 00:09:54;;;;;;;15.83;11.77;;;;;;;;;;4992642;28;20451;-63
2023/12/14 00:12:19;;;;;;;16.83;12.90;;;;;;;;;;4991526;28;20404;-63
2023/12/14 00:14:44;;;;;;;16.70;13.47;;;;;;;;;;5033644;28;20415;-63
2023/12/14 00:17:10;;;;;;;17.67;13.88;;;;;;;;;;5019291;28;20468;-64
2023/12/14 00:19:35;;;;;;;18.80;13.73;;;;;;;;;;5018795;28;20406;-63
2023/12/14 00:22:00;;;;;;;19.17;14.43;;;;;;;;;;5009521;28;20423;-66
2023/12/14 00:24:26;;;;;;;19.47;14.07;;;;;;;;;;5000161;28;20458;-63
2023/12/14 00:26:51;;;;;;;19.40;14.40;;;;;;;;;;4999528;28;20416;-63
2023/12/14 00:29:16;;;;;;;17.50;12.70;;;;;;;;;;4995319;28;20938;-63
2023/12/14 00:31:41;;;;;;;17.77;13.30;;;;;;;;;;4992574;28;20396;-63
2023/12/14 00:34:07;;;;;;;18.90;13.63;;;;;;;;;;5025611;28;20414;-64
2023/12/14 00:36:32;;;;;;;17.20;13.50;;;;;;;;;;5007626;28;20458;-63
2023/12/14 00:38:58;;;;;;;18.48;13.68;;;;;;;;;;5008737;28;20766;-63
2023/12/14 00:41:23;;;;;;;19.20;14.13;;;;;;;;;;5028610;28;20388;-63
2023/12/14 00:43:48;;;;;;;19.70;14.83;;;;;;;;;;5029723;28;20757;-63
2023/12/14 00:46:14;;;;;;;19.95;14.30;;;;;;;;;;5029127;28;20394;-63
2023/12/14 00:48:39;;;;;;;20.53;14.63;;;;;;;;;;5024075;28;20457;-63
2023/12/14 00:51:04;;;;;;;20.10;14.10;;;;;;;;;;5029344;28;20806;-63
2023/12/14 00:53:30;;;;;;;16.57;12.87;;;;;;;;;;5029301;28;20433;-63
2023/12/14 00:55:55;;;;;;;20.00;13.57;;;;;;;;;;5028811;28;20510;-63
2023/12/14 00:58:20;;;;;;;16.00;12.70;;;;;;;;;;5028396;28;20403;-63
2023/12/14 01:00:46;;;;;;;16.33;13.13;;;;;;;;;;5029519;28;20748;-63
2023/12/14 01:03:11;;;;;;;16.60;12.67;;;;;;;;;;5028759;28;20424;-63
2023/12/14 01:05:37;;;;;;;16.10;13.13;;;;;;;;;;5029571;28;20426;-63
2023/12/14 01:08:02;;;;;;;17.30;13.07;;;;;;;;;;5028142;28;20470;-64
2023/12/14 01:10:27;;;;;;;14.83;11.90;;;;;;;;;;5029021;28;20395;-63
2023/12/14 01:12:52;;;;;;;16.80;13.20;;;;;;;;;;5029440;28;20568;-63
2023/12/14 01:15:18;;;;;;;14.20;11.97;;;;;;;;;;5028806;28;20426;-63
2023/12/14 01:17:43;;;;;;;15.70;12.20;;;;;;;;;;5028117;28;20766;-63
2023/12/14 01:20:08;;;;;;;16.67;12.63;;;;;;;;;;5029258;28;20454;-63
2023/12/14 01:22:34;;;;;;;15.75;12.57;;;;;;;;;;5029298;28;20445;-63
2023/12/14 01:24:59;;;;;;;15.10;12.07;;;;;;;;;;5028779;28;20403;-63
2023/12/14 01:27:25;;;;;;;15.57;12.43;;;;;;;;;;5028269;28;20518;-63
2023/12/14 01:29:50;;;;;;;15.45;12.70;;;;;;;;;;5028291;28;20456;-63
2023/12/14 01:32:15;;;;;;;14.37;12.10;;;;;;;;;;5028827;28;20485;-63
2023/12/14 01:34:40;;;;;;;16.13;12.63;;;;;;;;;;5029917;28;20403;-63
2023/12/14 01:37:06;;;;;;;15.47;12.13;;;;;;;;;;5031601;28;21134;-63
2023/12/14 01:39:32;;;;;;;15.77;11.98;;;;;;;;;;5031841;28;20924;-63
2023/12/14 01:41:57;;;;;;;15.13;12.10;;;;;;;;;;5031145;28;20886;-63
2023/12/14 01:44:22;;;;;;;14.60;12.17;;;;;;;;;;5031332;28;20390;-63
2023/12/14 01:46:48;;;;;;;12.87;10.57;;;;;;;;;;5025198;28;20470;-63
2023/12/14 01:49:13;;;;;;;14.93;11.80;;;;;;;;;;5012497;28;20498;-63
2023/12/14 01:51:38;;;;;;;13.17;10.77;;;;;;;;;;5016628;28;20405;-63
2023/12/14 01:54:04;;;;;;;13.80;11.43;;;;;;;;;;5012525;28;20401;-64
2023/12/14 01:56:29;;;;;;;14.15;11.23;;;;;;;;;;5017296;28;20426;-63
2023/12/14 01:58:54;;;;;;;14.43;11.53;;;;;;;;;;5031242;28;20396;-63
2023/12/14 02:01:22;;;;;;;13.93;11.20;;;;;;;;;;5031980;28;20360;-63
2023/12/14 02:03:49;;;;;;;14.20;11.88;;;;;;;;;;5032181;28;20418;-63
2023/12/14 02:06:15;;;;;;;16.10;11.97;;;;;;;;;;5031637;28;20457;-63
2023/12/14 02:08:40;;;;;;;14.07;11.27;;;;;;;;;;5031675;28;20399;-63
2023/12/14 02:11:05;;;;;;;12.93;10.67;;;;;;;;;;5031801;28;20426;-64
2023/12/14 02:13:30;;;;;;;13.47;11.07;;;;;;;;;;5031371;28;20391;-63
2023/12/14 02:15:56;;;;;;;12.90;10.57;;;;;;;;;;5032142;28;20419;-63
2023/12/14 02:18:21;;;;;;;14.10;11.20;;;;;;;;;;5030689;28;20371;-63
2023/12/14 02:20:46;;;;;;;14.00;11.77;;;;;;;;;;5030384;28;20489;-62
2023/12/14 02:23:12;;;;;;;13.35;11.27;;;;;;;;;;5005083;28;20847;-63
2023/12/14 02:25:37;;;;;;;13.70;11.30;;;;;;;;;;5003246;28;20415;-62
2023/12/14 02:28:02;;;;;;;14.63;11.37;;;;;;;;;;5000484;28;20409;-63
2023/12/14 02:30:28;;;;;;;11.77;10.10;;;;;;;;;;5002979;28;20744;-63
2023/12/14 02:32:53;;;;;;;13.40;11.13;;;;;;;;;;5002081;28;20443;-63
2023/12/14 02:35:18;;;;;;;12.27;10.40;;;;;;;;;;4997702;28;20663;-63
2023/12/14 02:40:37;;;;;;;13.45;11.18;;;;;;;;;;4999490;28;20491;-63
2023/12/14 02:43:02;;;;;;;13.50;11.07;;;;;;;;;;4998940;28;20420;-63
2023/12/14 02:45:27;;;;;;;13.13;10.73;;;;;;;;;;5002269;28;20417;-63
2023/12/14 02:47:54;;;;;;;13.55;10.65;;;;;;;;;;4996113;28;20499;-63
2023/12/14 02:50:19;;;;;;;13.27;10.30;;;;;;;;;;5002450;28;20907;-63
2023/12/14 02:52:44;;;;;;;12.90;10.37;;;;;;;;;;5001610;28;20401;-63
2023/12/14 02:55:09;;;;;;;12.63;10.43;;;;;;;;;;5000968;28;20416;-63
2023/12/14 02:57:35;;;;;;;11.97;9.90;;;;;;;;;;4998061;28;20405;-63
2023/12/14 03:00:00;;;;;;;11.40;9.95;;;;;;;;;;4994631;28;20781;-63
2023/12/14 03:02:25;;;;;;;12.33;10.40;;;;;;;;;;4993063;28;20385;-63
2023/12/14 03:04:50;;;;;;;12.70;10.47;;;;;;;;;;4996722;28;20722;-63
2023/12/14 03:07:16;;;;;;;13.17;10.50;;;;;;;;;;5001170;28;20503;-63
2023/12/14 03:09:44;;;;;;;12.20;9.83;;;;;;;;;;5000447;28;20792;-63
2023/12/14 03:12:09;;;;;;;13.02;10.43;;;;;;;;;;5001209;28;20393;-63
2023/12/14 03:14:34;;;;;;;12.00;10.27;;;;;;;;;;5001105;28;20451;-63
2023/12/14 03:16:59;;;;;;;12.17;10.60;;;;;;;;;;5000909;28;20411;-63
2023/12/14 03:19:25;;;;;;;11.50;9.75;;;;;;;;;;5000180;28;20513;-63
2023/12/14 03:21:50;;;;;;;11.17;9.63;;;;;;;;;;4994431;28;20403;-63
2023/12/14 03:24:15;;;;;;;11.93;10.13;;;;;;;;;;4992935;28;20590;-63
2023/12/14 03:26:40;;;;;;;11.50;9.63;;;;;;;;;;4994018;28;20404;-63
2023/12/14 03:29:07;;;;;;;11.13;9.67;;;;;;;;;;4999547;28;20401;-64
2023/12/14 03:31:33;;;;;;;10.05;8.45;;;;;;;;;;5000732;28;20480;-63
2023/12/14 03:33:58;;;;;;;11.98;10.40;;;;;;;;;;5001711;28;20512;-63
2023/12/14 03:36:26;;;;;;;11.00;9.83;;;;;;;;;;5027259;28;20558;-63
2023/12/14 03:38:51;;;;;;;12.35;10.65;;;;;;;;;;5000060;28;20506;-63
2023/12/14 03:41:16;;;;;;;12.30;10.77;;;;;;;;;;5000881;28;20503;-63
2023/12/14 03:43:42;;;;;;;11.67;10.03;;;;;;;;;;4995260;28;20884;-63
2023/12/14 03:46:07;;;;;;;11.60;9.87;;;;;;;;;;4992737;28;20535;-63
2023/12/14 03:48:33;;;;;;;11.23;10.07;;;;;;;;;;4987635;28;20415;-63
2023/12/14 03:50:58;;;;;;;10.82;9.55;;;;;;;;;;4998470;28;20416;-63
2023/12/14 03:53:23;;;;;;;11.20;9.43;;;;;;;;;;5030753;28;20475;-62
2023/12/14 03:55:48;;;;;;;11.00;9.80;;;;;;;;;;5000727;28;20415;-63
2023/12/14 03:58:14;;;;;;;11.37;9.40;;;;;;;;;;4998202;28;20539;-63
2023/12/14 04:00:39;;;;;;;10.47;9.10;;;;;;;;;;5001467;28;20409;-63
2023/12/14 04:03:04;;;;;;;11.77;10.17;;;;;;;;;;5000011;28;20888;-63
2023/12/14 04:05:29;;;;;;;11.77;9.50;;;;;;;;;;4997459;28;20486;-63
2023/12/14 04:07:55;;;;;;;11.05;9.52;;;;;;;;;;4992440;28;21056;-63
2023/12/14 04:10:20;;;;;;;10.83;9.43;;;;;;;;;;4992160;28;20745;-63
2023/12/14 04:12:45;;;;;;;10.73;9.43;;;;;;;;;;4995102;28;20409;-63
2023/12/14 04:15:11;;;;;;;10.47;9.37;;;;;;;;;;4999527;28;20420;-63
2023/12/14 04:17:38;;;;;;;11.20;9.57;;;;;;;;;;4997413;28;22160;-63
2023/12/14 04:20:05;;;;;;;11.25;9.65;;;;;;;;;;4999546;28;20815;-63
2023/12/14 04:22:31;;;;;;;10.38;9.02;;;;;;;;;;5000837;28;20405;-62
2023/12/14 04:24:56;;;;;;;11.13;9.27;;;;;;;;;;5000201;28;20413;-63
2023/12/14 04:27:24;;;;;;;10.10;9.02;;;;;;;;;;4998519;28;20562;-63
2023/12/14 04:29:49;;;;;;;10.00;8.98;;;;;;;;;;4993210;28;20729;-63
2023/12/14 04:32:14;;;;;;;10.63;9.37;;;;;;;;;;4991644;28;20785;-63
2023/12/14 04:34:39;;;;;;;10.20;9.10;;;;;;;;;;5010296;28;20393;-63
2023/12/14 04:37:05;;;;;;;10.20;9.00;;;;;;;;;;5007034;28;20456;-63
2023/12/14 04:39:30;;;;;;;10.43;9.33;;;;;;;;;;4999572;28;20409;-63
2023/12/14 04:41:55;;;;;;;11.23;9.10;;;;;;;;;;4999982;28;20906;-63
2023/12/14 04:44:21;;;;;;;10.43;9.27;;;;;;;;;;4999537;28;20431;-63
2023/12/14 04:46:46;;;;;;;10.70;8.95;;;;;;;;;;4999587;28;20417;-63
2023/12/14 04:49:12;;;;;;;11.00;9.80;;;;;;;;;;4994719;28;20443;-63
2023/12/14 04:51:37;;;;;;;10.32;9.25;;;;;;;;;;4995420;28;20435;-62
2023/12/14 04:54:03;;;;;;;10.97;8.60;;;;;;;;;;4991158;28;20397;-63
2023/12/14 04:56:28;;;;;;;11.55;9.50;;;;;;;;;;5006842;28;20436;-63
2023/12/14 04:58:54;;;;;;;10.30;8.93;;;;;;;;;;4997177;28;20405;-63
2023/12/14 05:01:19;;;;;;;10.60;8.90;;;;;;;;;;4999314;28;20436;-63
2023/12/14 05:03:44;;;;;;;10.63;9.43;;;;;;;;;;4999914;28;20436;-63
2023/12/14 05:06:09;;;;;;;11.85;9.50;;;;;;;;;;4999837;28;20813;-63
2023/12/14 05:08:35;;;;;;;10.63;9.33;;;;;;;;;;4998800;28;20412;-63
2023/12/14 05:11:00;;;;;;;10.90;9.50;;;;;;;;;;5003717;28;20409;-64
2023/12/14 05:13:26;;;;;;;10.48;9.38;;;;;;;;;;5000755;28;20434;-63
2023/12/14 05:15:51;;;;;;;11.47;9.60;;;;;;;;;;4995232;28;20412;-63
2023/12/14 05:18:17;;;;;;;10.93;9.13;;;;;;;;;;4994981;28;20474;-63
2023/12/14 05:20:42;;;;;;;11.23;9.07;;;;;;;;;;5032696;28;20439;-63
2023/12/14 05:23:07;;;;;;;10.60;8.97;;;;;;;;;;5003285;28;20401;-63
2023/12/14 05:25:33;;;;;;;9.63;8.33;;;;;;;;;;5003690;28;20388;-62
2023/12/14 05:27:58;;;;;;;10.97;9.20;;;;;;;;;;5002900;28;20412;-63
2023/12/14 05:30:23;;;;;;;9.83;8.63;;;;;;;;;;5006528;28;20424;-62
2023/12/14 05:32:48;;;;;;;10.30;9.10;;;;;;;;;;5027861;28;20744;-63
2023/12/14 05:35:14;;;;;;;10.87;8.70;;;;;;;;;;5031981;28;20486;-63
2023/12/14 05:37:39;;;;;;;11.50;9.00;;;;;;;;;;5031582;28;20391;-63
2023/12/14 05:40:05;;;;;;;9.63;8.50;;;;;;;;;;5032372;28;20395;-63
2023/12/14 05:42:30;;;;;;;9.63;8.57;;;;;;;;;;5032690;28;20901;-63
2023/12/14 05:44:55;;;;;;;10.90;8.60;;;;;;;;;;5030899;28;20391;-63
2023/12/14 05:47:20;;;;;;;11.57;9.20;;;;;;;;;;5034470;28;20436;-63
2023/12/14 05:49:46;;;;;;;10.77;8.90;;;;;;;;;;5027274;28;20891;-63
2023/12/14 05:52:11;;;;;;;10.03;8.80;;;;;;;;;;5031553;28;20403;-62
2023/12/14 05:54:37;;;;;;;10.67;8.60;;;;;;;;;;5047952;28;20403;-63
2023/12/14 05:57:02;;;;;;;9.93;8.40;;;;;;;;;;5031254;28;20949;-63
2023/12/14 05:59:27;;;;;;;10.50;8.82;;;;;;;;;;5031936;28;20515;-63
2023/12/14 06:01:56;;;;;;;9.13;8.13;;;;;;;;;;5031997;28;20494;-63
2023/12/14 06:04:22;;;;;;;10.63;8.68;;;;;;;;;;5031410;28;20402;-63
2023/12/14 06:06:47;;;;;;;9.53;8.10;;;;;;;;;;5032270;28;20403;-63
2023/12/14 06:09:12;;;;;;;9.40;8.10;;;;;;;;;;5031113;28;20415;-63
2023/12/14 06:11:38;;;;;;;10.00;8.30;;;;;;;;;;5031819;28;20391;-63
2023/12/14 06:14:03;;;;;;;9.20;7.65;;;;;;;;;;5032012;28;20399;-63
2023/12/14 06:16:28;;;;;;;9.50;7.50;;;;;;;;;;5031598;28;20422;-63
2023/12/14 06:18:53;;;;;;;9.50;7.80;;;;;;;;;;5030960;28;20399;-62
2023/12/14 06:21:19;;;;;;;10.70;7.90;;;;;;;;;;5030986;28;20403;-63
2023/12/14 06:23:44;;;;;;;9.40;7.77;;;;;;;;;;5031901;28;20399;-63
2023/12/14 06:26:09;;;;;;;9.48;7.45;;;;;;;;;;5031063;28;20477;-63
2023/12/14 06:28:34;;;;;;;8.77;7.17;;;;;;;;;;5031502;28;20407;-63
2023/12/14 06:31:01;;;;;;;8.50;7.00;;;;;;;;;;5031248;28;20408;-62
2023/12/14 06:33:26;;;;;;;9.13;7.47;;;;;;;;;;5006855;28;20872;-63
2023/12/14 06:35:51;;;;;;;8.90;7.13;;;;;;;;;;5003349;28;20415;-63
2023/12/14 06:38:17;;;;;;;10.88;7.68;;;;;;;;;;4997207;28;20424;-63
2023/12/14 06:40:42;;;;;;;9.33;7.27;;;;;;;;;;4994134;28;20393;-63
2023/12/14 06:43:07;;;;;;;8.57;7.00;;;;;;;;;;4994310;28;20851;-63
2023/12/14 06:45:33;;;;;;;9.70;7.43;;;;;;;;;;4998666;28;20490;-63
2023/12/14 06:47:58;;;;;;;10.10;7.80;;;;;;;;;;4996390;28;20408;-65
2023/12/14 06:50:23;;;;;;;9.13;7.07;;;;;;;;;;5001189;28;20393;-63
2023/12/14 06:52:48;;;;;;;8.97;6.57;;;;;;;;;;5002927;28;20471;-63
2023/12/14 06:55:14;;;;;;;9.07;7.10;;;;;;;;;;5020590;28;20411;-62
2023/12/14 06:57:42;;;;;;;9.02;7.30;;;;;;;;;;5030310;28;20411;-62
2023/12/14 07:00:08;;;;;;;9.82;6.97;;;;;;;;;;5046189;28;20426;-63
2023/12/14 07:02:33;;;;;;;8.87;7.00;;;;;;;;;;5030023;28;20473;-62
2023/12/14 07:04:58;;;;;;;9.13;7.47;;;;;;;;;;5030757;28;20965;-61
2023/12/14 07:07:24;;;;;;;9.93;7.43;;;;;;;;;;5028745;28;20426;-62
2023/12/14 07:09:50;;;;;;;9.37;7.07;;;;;;;;;;5030920;28;20763;-62
2023/12/14 07:12:15;;;;;;;9.00;7.05;;;;;;;;;;5030011;28;20407;-62
2023/12/14 07:14:40;;;;;;;9.97;7.23;;;;;;;;;;5029955;28;20403;-62
2023/12/14 07:17:05;;;;;;;9.07;6.67;;;;;;;;;;5029895;28;20406;-63
2023/12/14 07:19:31;;;;;;;8.97;6.90;;;;;;;;;;5029514;28;20395;-61
2023/12/14 07:21:57;;;;;;;8.57;6.38;;;;;;;;;;5029555;28;20408;-61
2023/12/14 07:24:22;;;;;;;9.37;6.67;;;;;;;;;;5029971;28;20467;-61
2023/12/14 07:26:47;;;;;;;8.40;6.03;;;;;;;;;;5030104;28;20430;-61
2023/12/14 07:29:12;;;;;;;8.13;6.10;;;;;;;;;;5028857;28;20450;-62
2023/12/14 07:31:38;;;;;;;8.27;6.13;;;;;;;;;;5030645;28;20461;-62
2023/12/14 07:34:03;;;;;;;8.23;6.00;;;;;;;;;;5025019;28;20438;-62
2023/12/14 07:36:28;;;;;;;8.03;6.07;;;;;;;;;;5029614;28;20410;-62
2023/12/14 07:38:54;;;;;;;8.83;5.40;;;;;;;;;;5030053;28;20393;-62
2023/12/14 07:41:19;;;;;;;7.80;5.20;;;;;;;;;;5029867;28;20769;-62
2023/12/14 07:43:44;;;;;;;7.80;5.47;;;;;;;;;;5029954;28;20403;-61
2023/12/14 07:46:09;;;;;;;7.60;5.50;;;;;;;;;;5029936;28;20403;-63
2023/12/14 07:48:35;;;;;;;7.70;5.20;;;;;;;;;;5023793;28;20754;-62
2023/12/14 07:51:00;;;;;;;7.38;5.22;;;;;;;;;;5027309;28;20439;-63
2023/12/14 07:53:26;;;;;;;7.77;5.20;;;;;;;;;;5032406;28;20385;-62
2023/12/14 07:55:51;;;;;;;6.30;4.80;;;;;;;;;;5033576;28;20411;-62
2023/12/14 07:58:17;;;;;;;7.20;4.87;;;;;;;;;;5027336;28;20407;-62
2023/12/14 08:00:42;;;;;;;7.53;5.00;;;;;;;;;;5030285;28;20858;-62
2023/12/14 08:03:07;;;;;;;7.00;4.80;;;;;;;;;;5017787;28;20446;-62
2023/12/14 08:05:32;;;;;;;7.32;4.60;;;;;;;;;;5022606;28;20410;-61
2023/12/14 08:07:58;;;;;;;6.97;5.00;;;;;;;;;;5016249;28;20457;-62
2023/12/14 08:10:23;;;;;;;9.57;5.33;;;;;;;;;;5019192;28;20459;-62
2023/12/14 08:12:48;;;;;;;7.87;5.30;;;;;;;;;;5018033;28;20403;-62
2023/12/14 08:15:13;;;;;;;7.30;4.97;;;;;;;;;;5014386;28;20945;-63
2023/12/14 08:17:39;;;;;;;6.40;4.93;;;;;;;;;;5018328;28;20447;-63
2023/12/14 08:20:08;;;;;;;7.97;5.78;;;;;;;;;;5017408;28;20907;-63
2023/12/14 08:22:33;;;;;;;8.48;5.75;;;;;;;;;;5014581;28;20754;-62
2023/12/14 08:24:59;;;;;;;9.63;7.60;;;;;;;;;;5017990;28;20399;-63
2023/12/14 08:27:24;;;;;;;15.20;13.70;;;;;;;;;;5018328;28;20397;-63
2023/12/14 08:29:49;;;;;;;7.30;5.30;;;;;;;;;;5014374;28;20415;-63
2023/12/14 08:32:14;;;;;;;6.53;4.50;;;;;;;;;;5018242;28;20399;-62
2023/12/14 08:34:40;;;;;;;6.60;4.80;;;;;;;;;;5018591;28;20736;-62
2023/12/14 08:37:05;;;;;;;6.18;5.00;;;;;;;;;;5015255;28;20874;-64
2023/12/14 08:39:31;;;;;;;7.13;4.50;;;;;;;;;;5015955;28;20409;-62
2023/12/14 08:41:56;;;;;;;7.07;4.90;;;;;;;;;;5016292;28;20407;-62
2023/12/14 08:44:21;;;;;;;6.80;4.33;;;;;;;;;;5017522;28;20399;-62
2023/12/14 08:46:47;;;;;;;5.95;4.40;;;;;;;;;;5018184;28;20410;-62
2023/12/14 08:49:12;;;;;;;6.17;4.50;;;;;;;;;;5032506;28;20893;-63
2023/12/14 08:51:38;;;;;;;6.33;4.40;;;;;;;;;;5034699;28;20786;-62
2023/12/14 08:54:04;;;;;;;6.38;4.50;;;;;;;;;;5016159;28;20432;-63
2023/12/14 08:56:29;;;;;;;6.88;4.75;;;;;;;;;;5022049;28;20434;-62
2023/12/14 08:58:54;;;;;;;7.80;5.10;;;;;;;;;;5020768;28;20427;-62
2023/12/14 09:01:21;;;;;;;5.73;4.43;;;;;;;;;;5018157;28;20371;-63
2023/12/14 09:03:46;;;;;;;6.22;4.50;;;;;;;;;;5020052;28;20390;-62
2023/12/14 09:06:11;;;;;;;8.07;6.30;;;;;;;;;;5022206;28;20407;-62
2023/12/14 09:08:36;;;;;;;10.77;7.85;;;;;;;;;;5016880;28;20822;-62
2023/12/14 09:11:02;;;;;;;21.70;17.07;;;;;;;;;;5018880;28;20399;-63
2023/12/14 09:13:27;;;;;;;13.73;11.23;;;;;;;;;;5022305;28;20401;-62
2023/12/14 09:15:53;;;;;;;8.15;5.53;;;;;;;;;;5019252;28;20415;-62
2023/12/14 09:18:20;;;;;;;6.73;4.87;;;;;;;;;;5014096;28;20414;-62
2023/12/14 09:20:45;;;;;;;8.20;4.85;;;;;;;;;;5020430;28;20589;-62
2023/12/14 09:23:10;;;;;;;6.70;5.10;;;;;;;;;;5021314;28;20427;-62
2023/12/14 09:25:35;;;;;;;6.70;4.90;;;;;;;;;;5017786;28;20398;-62
2023/12/14 09:28:01;;;;;;;7.60;5.13;;;;;;;;;;5017653;28;20423;-64
2023/12/14 09:30:26;;;;;;;11.48;9.05;;;;;;;;;;5022498;28;20755;-62
2023/12/14 09:32:52;;;;;;;9.07;6.60;;;;;;;;;;5018948;28;20429;-62
2023/12/14 09:35:17;;;;;;;7.90;6.00;;;;;;;;;;5017785;28;20404;-62
2023/12/14 09:37:43;;;;;;;8.75;6.05;;;;;;;;;;5020779;28;20769;-62
2023/12/14 09:40:08;;;;;;;7.97;5.37;;;;;;;;;;5021281;28;20402;-63
2023/12/14 09:42:36;;;;;;;6.75;5.10;;;;;;;;;;5018291;28;20395;-62
2023/12/14 09:45:01;;;;;;;7.47;5.40;;;;;;;;;;5014008;28;20806;-63
2023/12/14 09:47:27;;;;;;;7.30;5.32;;;;;;;;;;5020701;28;20391;-62
2023/12/14 09:49:52;;;;;;;7.77;5.67;;;;;;;;;;5013090;28;20399;-62
2023/12/14 09:52:18;;;;;;;9.87;6.73;;;;;;;;;;5015068;28;20399;-62
2023/12/14 09:54:43;;;;;;;10.35;7.00;;;;;;;;;;5013303;28;20918;-62
2023/12/14 09:57:08;;;;;;;10.53;6.70;;;;;;;;;;5015413;28;20400;-63
2023/12/14 09:59:33;;;;;;;8.80;6.63;;;;;;;;;;5018278;28;20411;-62
2023/12/14 10:02:19;;;;;;;9.17;6.60;;;;;;;;;;5019473;28;20998;-62
2023/12/14 10:04:45;;;;;;;7.43;5.70;;;;;;;;;;5015496;28;20427;-62
2023/12/14 10:07:10;;;;;;;8.27;5.77;;;;;;;;;;5017794;28;20534;-63
2023/12/14 10:09:36;;;;;;;8.40;5.73;;;;;;;;;;5018442;28;20916;-62
2023/12/14 10:12:03;;;;;;;6.67;5.30;;;;;;;;;;5019873;28;20403;-63
2023/12/14 10:14:29;;;;;;;7.47;5.18;;;;;;;;;;5017865;28;20398;-63
2023/12/14 10:16:55;;;;;;;7.63;5.40;;;;;;;;;;5020259;28;20607;-62
2023/12/14 10:19:21;;;;;;;8.83;5.80;;;;;;;;;;5018044;28;20389;-62
2023/12/14 10:21:46;;;;;;;7.93;6.10;;;;;;;;;;5017614;28;20973;-62
2023/12/14 10:24:12;;;;;;;9.00;6.30;;;;;;;;;;5020051;28;20841;-62
2023/12/14 10:26:37;;;;;;;7.45;5.40;;;;;;;;;;5021022;28;20894;-62
2023/12/14 10:29:04;;;;;;;8.70;5.93;;;;;;;;;;5015463;28;20429;-63
2023/12/14 10:31:30;;;;;;;8.05;6.45;;;;;;;;;;5018838;28;20406;-62
2023/12/14 10:33:55;;;;;;;8.60;6.13;;;;;;;;;;5020955;28;20407;-62
2023/12/14 10:36:22;;;;;;;7.87;5.67;;;;;;;;;;5018009;28;20390;-62
2023/12/14 10:38:48;;;;;;;7.80;5.97;;;;;;;;;;5017757;28;21000;-62
2023/12/14 10:41:13;;;;;;;7.97;6.30;;;;;;;;;;5020561;28;20460;-63
2023/12/14 10:43:38;;;;;;;8.82;6.32;;;;;;;;;;5017308;28;20447;-62
2023/12/14 10:46:05;;;;;;;8.30;6.10;;;;;;;;;;5015477;28;20407;-62
2023/12/14 10:48:30;;;;;;;11.43;8.38;;;;;;;;;;5011805;28;20422;-62
2023/12/14 10:50:55;;;;;;;11.55;8.35;;;;;;;;;;5016759;28;20458;-62
2023/12/14 10:53:21;;;;;;;10.50;6.50;;;;;;;;;;5015121;28;20411;-62
2023/12/14 10:55:46;;;;;;;9.73;6.90;;;;;;;;;;5018332;28;20902;-62
2023/12/14 10:58:12;;;;;;;9.07;6.30;;;;;;;;;;5012791;28;20419;-63
2023/12/14 11:00:38;;;;;;;8.93;6.47;;;;;;;;;;5016211;28;20403;-62
2023/12/14 11:03:06;;;;;;;8.83;6.30;;;;;;;;;;5015638;28;20429;-60
2023/12/14 11:05:32;;;;;;;8.95;5.95;;;;;;;;;;5019011;28;20406;-62
2023/12/14 11:08:09;;;;;;;8.90;6.10;;;;;;;;;;5016213;28;20850;-62
2023/12/14 11:10:38;;;;;;;8.67;6.13;;;;;;;;;;5017278;28;20458;-62
2023/12/14 11:13:04;;;;;;;9.90;6.68;;;;;;;;;;5017519;28;20498;-63
2023/12/14 11:15:30;;;;;;;7.15;5.53;;;;;;;;;;5014615;28;20478;-62
2023/12/14 11:18:08;;;;;;;9.60;6.50;;;;;;;;;;5016717;28;20759;-62
2023/12/14 11:20:46;;;;;;;9.27;6.18;;;;;;;;;;5016567;28;20402;-62
2023/12/14 11:23:13;;;;;;;9.40;6.15;;;;;;;;;;4996109;28;20408;-63
2023/12/14 11:25:39;;;;;;;8.85;6.50;;;;;;;;;;4998564;28;20437;-62
2023/12/14 11:28:05;;;;;;;7.95;6.22;;;;;;;;;;5027151;28;20407;-62
2023/12/14 11:30:31;;;;;;;8.30;6.20;;;;;;;;;;5016662;28;20391;-63
2023/12/14 11:32:57;;;;;;;8.13;6.03;;;;;;;;;;5018195;28;20487;-62
2023/12/14 11:35:22;;;;;;;8.73;6.20;;;;;;;;;;5014212;28;20476;-62
2023/12/14 11:37:47;;;;;;;8.73;6.00;;;;;;;;;;5016255;28;20410;-62
2023/12/14 11:40:16;;;;;;;8.90;6.00;;;;;;;;;;5017767;28;20407;-62
2023/12/14 11:42:41;;;;;;;9.18;6.55;;;;;;;;;;5016347;28;20480;-62
2023/12/14 11:45:06;;;;;;;8.67;6.07;;;;;;;;;;5016827;28;20899;-63
2023/12/14 11:47:32;;;;;;;8.50;6.20;;;;;;;;;;5017220;28;20778;-62
2023/12/14 11:49:57;;;;;;;8.80;5.60;;;;;;;;;;5012295;28;20890;-62
2023/12/14 11:52:22;;;;;;;9.05;6.13;;;;;;;;;;5015823;28;20399;-62
2023/12/14 11:54:47;;;;;;;8.23;5.33;;;;;;;;;;5018040;28;20756;-62
2023/12/14 11:57:13;;;;;;;9.20;6.00;;;;;;;;;;5016768;28;20399;-62
2023/12/14 11:59:38;;;;;;;8.83;5.60;;;;;;;;;;5015092;28;20403;-62
2023/12/14 12:02:03;;;;;;;8.33;5.40;;;;;;;;;;5016918;28;20409;-62
2023/12/14 12:04:29;;;;;;;8.15;5.38;;;;;;;;;;5017532;28;20398;-62
2023/12/14 12:06:59;;;;;;;8.97;6.10;;;;;;;;;;5015024;28;20829;-62
2023/12/14 12:09:33;;;;;;;9.02;5.80;;;;;;;;;;5015026;28;20875;-63
2023/12/14 12:11:58;;;;;;;8.43;5.80;;;;;;;;;;5016827;28;20401;-62
2023/12/14 12:14:23;;;;;;;12.20;9.47;;;;;;;;;;5013537;28;20391;-63
2023/12/14 12:16:50;;;;;;;8.17;5.53;;;;;;;;;;5016867;28;20414;-62
2023/12/14 12:19:15;;;;;;;7.47;5.47;;;;;;;;;;5016200;28;20687;-63
2023/12/14 12:21:40;;;;;;;8.23;6.05;;;;;;;;;;5015517;28;20492;-62
2023/12/14 12:24:05;;;;;;;12.77;10.10;;;;;;;;;;5016252;28;20399;-64
2023/12/14 12:26:31;;;;;;;8.47;6.20;;;;;;;;;;5017820;28;20744;-62
2023/12/14 12:28:56;;;;;;;8.43;5.63;;;;;;;;;;5015242;28;20407;-62
2023/12/14 12:31:21;;;;;;;7.97;5.57;;;;;;;;;;5015422;28;20403;-62
2023/12/14 12:33:47;;;;;;;8.00;5.57;;;;;;;;;;5016308;28;20418;-62
2023/12/14 12:36:12;;;;;;;7.90;5.83;;;;;;;;;;5015810;28;20900;-62
2023/12/14 12:38:40;;;;;;;7.43;4.80;;;;;;;;;;5014884;28;20403;-62
2023/12/14 12:41:05;;;;;;;6.72;5.03;;;;;;;;;;5017219;28;20902;-62
2023/12/14 12:43:30;;;;;;;8.07;5.17;;;;;;;;;;5016364;28;20453;-62
2023/12/14 12:45:58;;;;;;;9.20;5.13;;;;;;;;;;5013402;28;20410;-62
2023/12/14 12:48:23;;;;;;;6.90;4.88;;;;;;;;;;5010482;28;20391;-62
2023/12/14 12:50:48;;;;;;;7.03;4.60;;;;;;;;;;5016977;28;20395;-62
2023/12/14 12:53:14;;;;;;;7.13;4.60;;;;;;;;;;5014452;28;20806;-62
2023/12/14 12:55:39;;;;;;;6.37;4.40;;;;;;;;;;5016676;28;20395;-62
2023/12/14 12:58:04;;;;;;;7.43;4.65;;;;;;;;;;5015671;28;20411;-62
2023/12/14 13:00:30;;;;;;;7.20;4.60;;;;;;;;;;5015006;28;20402;-62
2023/12/14 13:02:56;;;;;;;7.30;5.20;;;;;;;;;;5016337;28;20407;-62
2023/12/14 13:05:23;;;;;;;8.25;4.47;;;;;;;;;;5016324;28;20399;-62
2023/12/14 13:07:49;;;;;;;8.40;5.32;;;;;;;;;;5014560;28;20542;-62
2023/12/14 13:10:15;;;;;;;7.68;5.20;;;;;;;;;;5015546;28;20411;-62
2023/12/14 13:12:40;;;;;;;7.07;4.70;;;;;;;;;;5032450;28;20399;-62
2023/12/14 13:15:06;;;;;;;7.70;4.80;;;;;;;;;;5013973;28;20415;-63
2023/12/14 13:17:31;;;;;;;7.27;5.00;;;;;;;;;;5014239;28;20406;-62
2023/12/14 13:19:56;;;;;;;8.37;5.30;;;;;;;;;;5017048;28;20490;-62
2023/12/14 13:22:21;;;;;;;7.50;4.57;;;;;;;;;;5015353;28;20407;-62
2023/12/14 13:24:47;;;;;;;7.37;4.83;;;;;;;;;;5014741;28;20401;-62
2023/12/14 13:27:12;;;;;;;7.50;4.90;;;;;;;;;;5016289;28;20411;-62
2023/12/14 13:29:37;;;;;;;7.70;4.80;;;;;;;;;;5016504;28;20941;-62
2023/12/14 13:32:03;;;;;;;7.13;5.07;;;;;;;;;;5017992;28;20407;-62
2023/12/14 13:34:28;;;;;;;7.00;4.93;;;;;;;;;;5019660;28;20403;-62
2023/12/14 13:36:54;;;;;;;6.30;4.90;;;;;;;;;;5020382;28;20410;-62
2023/12/14 13:39:19;;;;;;;6.82;4.70;;;;;;;;;;5017845;28;20489;-62
2023/12/14 13:41:44;;;;;;;7.43;4.93;;;;;;;;;;5018707;28;20395;-62
2023/12/14 13:44:10;;;;;;;7.40;5.10;;;;;;;;;;5018220;28;20427;-63
2023/12/14 13:46:35;;;;;;;6.50;4.80;;;;;;;;;;5014609;28;20478;-62
2023/12/14 13:49:01;;;;;;;7.13;4.50;;;;;;;;;;5012247;28;20422;-67
2023/12/14 13:51:27;;;;;;;7.00;4.55;;;;;;;;;;5020675;28;20901;-62
2023/12/14 13:53:52;;;;;;;9.63;5.60;;;;;;;;;;5020168;28;20399;-62
2023/12/14 13:56:17;;;;;;;7.13;4.70;;;;;;;;;;5016812;28;20419;-62
2023/12/14 13:58:43;;;;;;;7.13;4.77;;;;;;;;;;5019645;28;20403;-62
2023/12/14 14:01:08;;;;;;;7.27;4.83;;;;;;;;;;5019056;28;20838;-62
2023/12/14 14:03:34;;;;;;;7.40;4.70;;;;;;;;;;5018016;28;20496;-62
2023/12/14 14:05:59;;;;;;;7.55;5.20;;;;;;;;;;5013808;28;20396;-62
2023/12/14 14:08:24;;;;;;;7.20;5.20;;;;;;;;;;5015893;28;20482;-62
2023/12/14 14:10:50;;;;;;;10.43;5.00;;;;;;;;;;5019181;28;20874;-62
2023/12/14 14:13:15;;;;;;;7.68;5.32;;;;;;;;;;5017151;28;20411;-62
2023/12/14 14:15:40;;;;;;;9.17;5.43;;;;;;;;;;5019429;28;20411;-62
2023/12/14 14:18:06;;;;;;;10.47;5.60;;;;;;;;;;5017699;28;20407;-63
2023/12/14 14:20:31;;;;;;;13.03;5.53;;;;;;;;;;5017619;28;20396;-62
2023/12/14 14:22:59;;;;;;;9.52;5.88;;;;;;;;;;5019542;28;20454;-62
2023/12/14 14:25:24;;;;;;;9.25;5.50;;;;;;;;;;5019117;28;20425;-62